»·PEaware :: N899M KBFL-KSMF

N899M :: KBFL-KSMF

FLIGHT INFORMATION

Flight Status: Arrived
Operator: Privately registered:
United States
More flights under this callsign
Pilot: Robert C. (30425)
Aircraft: Unknown
(EPIC)
More flights by this aircraft type
Origin: KBFL Meadows
United States
Destination: KSMF Sacramento Intl
United States
More flights between these airports :: More routes between these airports
Route: +EHF V23 FRAME CZQ LIN
File this flight plan on PilotEdge
Remarks:
Altitude:
(Current/Filed)
10,000ft
Speed:
(Current/Filed)
300kts
Departed: 31-Oct-20 11:56 AM
Arrived: 31-Oct-20 12:52 PM
Distance/Time
Traveled:
230nm/0:56
Distance/Time
To Go:
Arrived

Flight Plot

Page will automatically refresh every two minutes.

Flight plan parsing failed; only flown route is shown


Map Options




Map Legend


Flown Route
Filed Route
Departure Airport
Arrival Airport
Navaid (VOR, NDB)
Fix

Horizontal Profiles

Position Reports

Time Latitude Longitude Heading Altitude Ground
Speed
31-Oct-20 11:09 35.436899 -119.054429 21 506ft 0kts
31-Oct-20 11:10 35.436899 -119.054429 21 506ft 0kts
31-Oct-20 11:11 35.436899 -119.054429 21 506ft 0kts
31-Oct-20 11:12 35.436899 -119.054429 21 506ft 0kts
31-Oct-20 11:13 35.436899 -119.054429 21 506ft 0kts
31-Oct-20 11:14 35.436899 -119.054429 21 506ft 0kts
31-Oct-20 11:15 35.436899 -119.054429 21 506ft 0kts
31-Oct-20 11:16 35.436899 -119.054429 21 506ft 0kts
31-Oct-20 11:17 35.436899 -119.054429 21 506ft 0kts
31-Oct-20 11:18 35.436899 -119.054429 21 506ft 0kts
31-Oct-20 11:19 35.436899 -119.054429 21 506ft 0kts
31-Oct-20 11:20 35.436899 -119.054429 21 506ft 0kts
31-Oct-20 11:21 35.436899 -119.054429 21 506ft 0kts
31-Oct-20 11:22 35.436899 -119.054429 21 506ft 0kts
31-Oct-20 11:23 35.436899 -119.054429 21 506ft 0kts
31-Oct-20 11:24 35.436899 -119.054429 21 506ft 0kts
31-Oct-20 11:25 35.436899 -119.054429 21 506ft 0kts
31-Oct-20 11:26 35.436899 -119.054429 21 506ft 0kts
31-Oct-20 11:27 35.436899 -119.054429 21 506ft 0kts
31-Oct-20 11:28 35.436899 -119.054429 21 506ft 0kts
31-Oct-20 11:29 35.436899 -119.054429 21 506ft 0kts
31-Oct-20 11:30 35.436944 -119.054409 19 506ft 0kts
31-Oct-20 11:31 35.436943 -119.054410 19 506ft 0kts
31-Oct-20 11:32 35.436943 -119.054410 19 506ft 0kts
31-Oct-20 11:33 35.436943 -119.054410 19 506ft 0kts
31-Oct-20 11:35 35.436943 -119.054410 19 506ft 0kts
31-Oct-20 11:36 35.436943 -119.054410 19 506ft 0kts
31-Oct-20 11:37 35.436943 -119.054410 19 506ft 0kts
31-Oct-20 11:38 35.436943 -119.054410 19 506ft 0kts
31-Oct-20 11:39 35.436943 -119.054410 19 506ft 0kts
31-Oct-20 11:40 35.436943 -119.054410 19 506ft 0kts
31-Oct-20 11:41 35.436943 -119.054410 19 506ft 0kts
31-Oct-20 11:42 35.436943 -119.054410 19 506ft 0kts
31-Oct-20 11:43 35.436943 -119.054410 19 506ft 0kts
31-Oct-20 11:44 35.436943 -119.054410 19 506ft 0kts
31-Oct-20 11:45 35.436943 -119.054410 19 506ft 0kts
31-Oct-20 11:46 35.436943 -119.054410 19 506ft 0kts
31-Oct-20 11:47 35.436943 -119.054410 19 506ft 0kts
31-Oct-20 11:49 35.436943 -119.054410 19 506ft 0kts
31-Oct-20 11:50 35.435744 -119.055385 201 498ft 12kts
31-Oct-20 11:51 35.433168 -119.053093 135 494ft 12kts
31-Oct-20 11:52 35.430906 -119.050330 136 494ft 11kts
31-Oct-20 11:53 35.428542 -119.047531 136 492ft 12kts
31-Oct-20 11:54 35.425892 -119.044936 224 484ft 6kts
31-Oct-20 11:55 35.425849 -119.044987 223 483ft 0kts
31-Oct-20 11:56 35.440438 -119.064562 311 1001ft 179kts
31-Oct-20 11:57 35.485982 -119.118630 316 2447ft 262kts
31-Oct-20 11:58 35.540028 -119.183084 316 3003ft 269kts
31-Oct-20 11:59 35.589710 -119.243651 315 3029ft 240kts
31-Oct-20 12:00 35.643966 -119.279607 343 4041ft 237kts
31-Oct-20 12:01 35.711165 -119.306318 342 5539ft 262kts
31-Oct-20 12:02 35.780252 -119.334136 343 7431ft 262kts
31-Oct-20 12:03 35.849537 -119.362091 343 9321ft 264kts
31-Oct-20 12:04 35.922582 -119.391570 343 9994ft 297kts
31-Oct-20 12:05 36.001190 -119.423332 343 9994ft 292kts
31-Oct-20 12:06 36.077550 -119.454749 342 9998ft 287kts
31-Oct-20 12:07 36.153217 -119.485526 342 10000ft 287kts
31-Oct-20 12:07 36.205303 -119.506740 342 10000ft 288kts
31-Oct-20 12:08 36.281775 -119.537943 342 10000ft 289kts
31-Oct-20 12:09 36.358411 -119.569277 342 10000ft 290kts
31-Oct-20 12:10 36.434731 -119.600547 342 10000ft 290kts
31-Oct-20 12:11 36.511281 -119.631976 342 9999ft 290kts
31-Oct-20 12:12 36.587570 -119.663364 342 9999ft 289kts
31-Oct-20 12:13 36.662856 -119.699748 337 9999ft 290kts
31-Oct-20 12:14 36.737148 -119.738399 337 9999ft 290kts
31-Oct-20 12:15 36.811417 -119.777126 337 9999ft 290kts
31-Oct-20 12:16 36.885326 -119.817204 325 9996ft 291kts
31-Oct-20 12:17 36.949357 -119.878930 322 10002ft 291kts
31-Oct-20 12:18 37.012849 -119.941227 322 10005ft 291kts
31-Oct-20 12:19 37.076547 -120.003876 322 10007ft 291kts
31-Oct-20 12:20 37.140052 -120.066475 322 10009ft 291kts
31-Oct-20 12:21 37.203648 -120.129298 322 10005ft 291kts
31-Oct-20 12:22 37.267159 -120.192177 322 10023ft 290kts
31-Oct-20 12:23 37.330291 -120.254821 322 10018ft 290kts
31-Oct-20 12:24 37.393494 -120.317675 322 10019ft 290kts
31-Oct-20 12:25 37.456626 -120.380595 322 10023ft 290kts
31-Oct-20 12:26 37.520087 -120.443981 322 10026ft 291kts
31-Oct-20 12:27 37.583384 -120.507345 322 10026ft 291kts
31-Oct-20 12:28 37.646909 -120.571081 322 10023ft 291kts
31-Oct-20 12:29 37.710310 -120.634837 322 10021ft 291kts
31-Oct-20 12:30 37.773656 -120.698678 321 10018ft 291kts
31-Oct-20 12:31 37.836775 -120.762437 321 10017ft 291kts
31-Oct-20 12:32 37.900113 -120.826562 321 10017ft 291kts
31-Oct-20 12:33 37.963193 -120.890569 321 10018ft 291kts
31-Oct-20 12:34 38.026264 -120.954714 321 10017ft 291kts
31-Oct-20 12:35 38.089967 -121.018294 323 10017ft 291kts
31-Oct-20 12:36 38.155003 -121.079249 323 10022ft 290kts
31-Oct-20 12:37 38.219378 -121.139680 323 10022ft 290kts
31-Oct-20 12:38 38.284110 -121.200586 323 10018ft 289kts
31-Oct-20 12:39 38.325279 -121.280643 299 8812ft 252kts
31-Oct-20 12:40 38.358032 -121.355354 299 6693ft 234kts
31-Oct-20 12:41 38.388537 -121.425104 299 4938ft 217kts
31-Oct-20 12:42 38.416224 -121.488560 300 4009ft 180kts
31-Oct-20 12:43 38.437784 -121.538053 300 4009ft 143kts
31-Oct-20 12:44 38.465131 -121.574294 316 4018ft 144kts
31-Oct-20 12:45 38.500861 -121.603835 358 3443ft 171kts
31-Oct-20 12:46 38.550026 -121.603541 0 2751ft 166kts
31-Oct-20 12:47 38.586122 -121.602991 359 1968ft 104kts
31-Oct-20 12:48 38.615003 -121.602538 359 1427ft 101kts
31-Oct-20 12:49 38.642774 -121.602106 359 869ft 99kts
31-Oct-20 12:50 38.670065 -121.601821 359 388ft 95kts
31-Oct-20 12:51 38.688449 -121.601505 1 22ft 17kts
31-Oct-20 12:52 38.690599 -121.599970 94 23ft 0kts
31-Oct-20 12:53 38.689456 -121.598742 180 23ft 20kts
31-Oct-20 12:54 38.682322 -121.598847 179 21ft 19kts
31-Oct-20 12:55 38.680146 -121.597859 4 20ft 3kts
31-Oct-20 12:56 38.680155 -121.597858 5 20ft 0kts
31-Oct-20 12:57 38.680155 -121.597858 5 20ft 0kts
31-Oct-20 12:58 38.680155 -121.597858 5 20ft 0kts
31-Oct-20 12:59 38.680155 -121.597858 5 20ft 0kts
31-Oct-20 13:00 38.680155 -121.597858 5 20ft 0kts
31-Oct-20 13:01 38.680155 -121.597858 5 20ft 0kts
31-Oct-20 13:02 38.680155 -121.597858 5 20ft 0kts
31-Oct-20 13:03 38.680155 -121.597858 5 20ft 0kts
31-Oct-20 13:04 38.680155 -121.597858 5 20ft 0kts
31-Oct-20 13:05 38.680155 -121.597858 5 20ft 0kts

Navigation Log

Ident Type
Flight plan parsing failed, navigation log unavailable